createdAt,value
2018-07-12T18:17:15.397Z,68.40
2018-07-12T18:19:46.057Z,69.40
2018-07-12T18:22:27.179Z,69.40
2018-07-12T18:24:57.285Z,69.80
2018-07-12T18:27:27.133Z,70.20
2018-07-12T18:29:57.320Z,70.40
2018-07-12T18:32:32.051Z,70.10
2018-07-12T18:35:01.768Z,69.10
2018-07-12T18:37:32.024Z,71.30
2018-07-12T18:40:02.117Z,70.60
2018-07-12T18:42:44.085Z,71.10
2018-07-12T18:45:14.152Z,70.90
2018-07-12T18:47:44.545Z,71.00
2018-07-12T18:50:15.348Z,70.50
2018-07-12T18:52:48.130Z,70.60
2018-07-12T18:55:18.219Z,71.50
2018-07-12T18:58:07.988Z,69.00
2018-07-12T19:00:37.937Z,72.30
2018-07-12T19:03:14.014Z,72.70
2018-07-12T19:05:44.355Z,73.20
2018-07-12T19:08:24.888Z,73.70
2018-07-12T19:10:55.873Z,75.70
2018-07-12T19:13:35.579Z,73.60
2018-07-12T19:16:06.772Z,70.40
2018-07-12T19:18:36.593Z,69.30
2018-07-12T19:21:06.957Z,67.30
2018-07-12T19:26:24.039Z,68.20
2018-07-12T19:28:53.796Z,66.90
2018-07-12T19:31:24.139Z,66.30
2018-07-12T19:33:54.960Z,66.40
2018-07-12T19:36:26.089Z,67.50
2018-07-12T19:38:58.202Z,69.80
2018-07-12T19:41:28.296Z,69.70
2018-07-12T19:43:58.506Z,70.50
2018-07-12T19:46:36.269Z,71.10
2018-07-12T19:49:06.978Z,70.60
2018-07-12T19:51:42.902Z,68.00
2018-07-12T19:54:13.480Z,69.40
2018-07-12T19:57:21.480Z,70.40
2018-07-12T19:59:52.476Z,70.40
2018-07-12T20:02:23.139Z,72.10
2018-07-12T20:04:53.625Z,70.70
2018-07-12T20:07:24.790Z,71.20
2018-07-12T20:09:55.776Z,71.30
2018-07-12T20:12:37.573Z,70.50
2018-07-12T20:15:07.891Z,70.20
2018-07-12T20:17:38.178Z,69.00
2018-07-12T20:20:15.169Z,68.10
2018-07-12T20:22:45.179Z,67.90
2018-07-12T20:25:14.878Z,67.70
2018-07-12T20:27:44.970Z,67.90
2018-07-12T20:30:15.346Z,68.10
2018-07-12T20:32:45.061Z,68.50
2018-07-12T20:35:14.956Z,68.70
2018-07-12T20:37:45.263Z,68.60
2018-07-12T20:40:15.272Z,69.00
2018-07-12T20:43:00.572Z,68.40
2018-07-12T20:45:30.785Z,68.50
2018-07-12T20:48:14.965Z,68.70
2018-07-12T20:50:45.500Z,68.60
2018-07-12T20:53:29.360Z,68.50
2018-07-12T20:56:30.697Z,68.80
2018-07-12T20:59:01.499Z,70.20
2018-07-12T21:01:31.868Z,69.80
2018-07-12T21:04:13.235Z,70.20
2018-07-12T21:06:59.060Z,70.50
2018-07-12T21:09:30.128Z,71.30
2018-07-12T21:12:01.501Z,71.50
2018-07-12T21:14:31.592Z,71.50
2018-07-12T21:17:02.568Z,72.20
2018-07-12T21:19:33.684Z,73.70
2018-07-12T21:22:05.977Z,73.60
2018-07-12T21:24:36.199Z,74.40
2018-07-12T21:27:06.821Z,74.50
2018-07-12T21:29:38.237Z,74.70
2018-07-12T21:32:21.565Z,75.10
2018-07-12T21:34:51.703Z,75.00
2018-07-12T21:37:21.690Z,74.90
2018-07-12T21:39:51.359Z,74.70
2018-07-12T21:42:21.157Z,74.90
2018-07-12T21:44:51.969Z,75.50
2018-07-12T21:47:38.772Z,75.80
2018-07-12T21:50:14.672Z,75.70
2018-07-12T21:52:44.328Z,75.40
2018-07-12T21:55:14.633Z,77.20
2018-07-12T21:57:46.086Z,75.60
2018-07-12T22:00:16.771Z,75.90
2018-07-12T22:02:56.644Z,77.10
2018-07-12T22:05:39.593Z,77.60
2018-07-12T22:08:19.675Z,77.60
2018-07-12T22:11:02.985Z,78.10
2018-07-12T22:13:36.791Z,78.10
2018-07-12T22:16:09.456Z,78.50
2018-07-12T22:18:40.400Z,78.20
2018-07-12T22:21:10.367Z,79.20
2018-07-12T22:23:49.162Z,78.80
2018-07-12T22:26:21.186Z,78.80
2018-07-12T22:28:52.987Z,78.90
2018-07-12T22:31:25.067Z,79.00
2018-07-12T22:33:56.162Z,79.30
2018-07-12T22:36:37.087Z,80.30
2018-07-12T22:39:08.925Z,80.00
2018-07-12T22:41:39.398Z,79.60
2018-07-12T22:44:09.253Z,80.50
2018-07-12T22:46:39.936Z,80.10
2018-07-12T22:49:13.430Z,80.10
2018-07-12T22:51:43.801Z,80.40
2018-07-12T22:54:14.539Z,80.50
2018-07-12T22:56:45.404Z,80.10
2018-07-12T22:59:15.371Z,80.70
2018-07-12T23:01:44.977Z,80.70
2018-07-12T23:04:14.663Z,81.20
2018-07-12T23:06:44.795Z,81.40
2018-07-12T23:09:14.313Z,81.40
2018-07-12T23:11:43.945Z,81.20
2018-07-12T23:14:13.938Z,81.60
2018-07-12T23:16:43.513Z,81.90
2018-07-12T23:19:13.154Z,82.10
2018-07-12T23:21:43.011Z,82.30
2018-07-12T23:24:12.870Z,82.50
2018-07-12T23:26:42.456Z,82.30
2018-07-12T23:29:12.337Z,82.50
2018-07-12T23:31:41.814Z,82.40
2018-07-12T23:34:17.468Z,82.30
2018-07-12T23:36:47.319Z,82.20
2018-07-12T23:39:17.032Z,82.20
2018-07-12T23:41:46.545Z,82.60
2018-07-12T23:44:25.087Z,82.70
2018-07-12T23:46:54.721Z,82.80
2018-07-12T23:49:24.239Z,82.90
2018-07-12T23:51:54.047Z,82.80
2018-07-12T23:54:23.573Z,82.80
2018-07-12T23:56:53.355Z,82.80
2018-07-12T23:59:23.799Z,82.70
